Latimer, Mississippi
Current Conditions -  °F | °C
As of 7:58 PM on Friday 24 Oct 2014 (Local Time) from KBIX Reporting Station
Clear Clear  
Wind Chill: 67°   Ceiling: Unl
Heat Index: 67°   Visibility: 10mi
Dew Point: 50°   Wind: 3mph
Humidity: 54%   Direction: 330°NNW
Pressure: 30.06"   Gusts: NA
Location:  30.418°N, 88.7558°W
Report Text: KBIX 250058Z AUTO 33003KT 10SM CLR 20/10 A3006 RMK AO2 SLP182 T01950099
Loading
Personal Weather Stations






























Interactive Weather Map
Tropical Storm Tracking
New forecast layout! Learn more

10-Day Weather Forecast

Advertisements
Track Severe Weather on mobile